sensor_id;sensor_type;location;lat;lon;timestamp;P1;durP1;ratioP1;P2;durP2;ratioP2
12597;SDS011;6364;53.590;9.956;2023-11-21T00:00:01;63.55;;;21.52;;
12597;SDS011;6364;53.590;9.956;2023-11-21T00:02:27;55.38;;;22.17;;
12597;SDS011;6364;53.590;9.956;2023-11-21T00:04:53;67.03;;;21.35;;
12597;SDS011;6364;53.590;9.956;2023-11-21T00:07:18;61.97;;;22.73;;
12597;SDS011;6364;53.590;9.956;2023-11-21T00:09:43;63.88;;;22.48;;
12597;SDS011;6364;53.590;9.956;2023-11-21T00:12:09;67.72;;;23.15;;
12597;SDS011;6364;53.590;9.956;2023-11-21T00:14:35;57.88;;;22.75;;
12597;SDS011;6364;53.590;9.956;2023-11-21T00:17:02;62.50;;;23.75;;
12597;SDS011;6364;53.590;9.956;2023-11-21T00:19:27;69.75;;;24.63;;
12597;SDS011;6364;53.590;9.956;2023-11-21T00:21:53;66.95;;;24.27;;
12597;SDS011;6364;53.590;9.956;2023-11-21T00:24:18;71.38;;;24.58;;
12597;SDS011;6364;53.590;9.956;2023-11-21T00:26:44;80.07;;;27.25;;
12597;SDS011;6364;53.590;9.956;2023-11-21T00:29:09;77.90;;;27.08;;
12597;SDS011;6364;53.590;9.956;2023-11-21T00:31:35;71.40;;;26.58;;
12597;SDS011;6364;53.590;9.956;2023-11-21T00:34:04;81.10;;;28.20;;
12597;SDS011;6364;53.590;9.956;2023-11-21T00:36:30;93.78;;;29.75;;
12597;SDS011;6364;53.590;9.956;2023-11-21T00:38:57;91.07;;;32.00;;
12597;SDS011;6364;53.590;9.956;2023-11-21T00:41:23;98.72;;;32.10;;
12597;SDS011;6364;53.590;9.956;2023-11-21T00:43:48;84.05;;;30.70;;
12597;SDS011;6364;53.590;9.956;2023-11-21T00:46:13;85.18;;;30.90;;
12597;SDS011;6364;53.590;9.956;2023-11-21T00:48:39;78.70;;;28.08;;
12597;SDS011;6364;53.590;9.956;2023-11-21T00:51:04;68.75;;;27.30;;
12597;SDS011;6364;53.590;9.956;2023-11-21T00:53:31;71.53;;;24.75;;
12597;SDS011;6364;53.590;9.956;2023-11-21T00:55:56;60.30;;;22.80;;
12597;SDS011;6364;53.590;9.956;2023-11-21T00:58:25;69.40;;;22.55;;
12597;SDS011;6364;53.590;9.956;2023-11-21T01:00:51;53.83;;;22.83;;
12597;SDS011;6364;53.590;9.956;2023-11-21T01:03:16;69.18;;;25.15;;
12597;SDS011;6364;53.590;9.956;2023-11-21T01:05:42;62.80;;;23.02;;
12597;SDS011;6364;53.590;9.956;2023-11-21T01:08:07;67.40;;;24.48;;
12597;SDS011;6364;53.590;9.956;2023-11-21T01:10:32;70.50;;;24.40;;
12597;SDS011;6364;53.590;9.956;2023-11-21T01:12:59;66.50;;;24.75;;
12597;SDS011;6364;53.590;9.956;2023-11-21T01:15:24;68.47;;;23.83;;
12597;SDS011;6364;53.590;9.956;2023-11-21T01:17:51;68.47;;;23.85;;
12597;SDS011;6364;53.590;9.956;2023-11-21T01:20:16;72.82;;;25.70;;
12597;SDS011;6364;53.590;9.956;2023-11-21T01:22:42;72.63;;;27.17;;
12597;SDS011;6364;53.590;9.956;2023-11-21T01:25:08;70.13;;;24.58;;
12597;SDS011;6364;53.590;9.956;2023-11-21T01:27:34;69.00;;;24.55;;
12597;SDS011;6364;53.590;9.956;2023-11-21T01:29:59;64.53;;;24.42;;
12597;SDS011;6364;53.590;9.956;2023-11-21T01:32:25;58.22;;;23.02;;
12597;SDS011;6364;53.590;9.956;2023-11-21T01:34:50;58.50;;;24.05;;
12597;SDS011;6364;53.590;9.956;2023-11-21T01:37:16;63.25;;;23.63;;
12597;SDS011;6364;53.590;9.956;2023-11-21T01:39:42;57.67;;;22.90;;
12597;SDS011;6364;53.590;9.956;2023-11-21T01:42:09;71.50;;;24.10;;
12597;SDS011;6364;53.590;9.956;2023-11-21T01:44:34;67.00;;;25.67;;
12597;SDS011;6364;53.590;9.956;2023-11-21T01:47:00;59.70;;;24.27;;
12597;SDS011;6364;53.590;9.956;2023-11-21T01:49:30;63.30;;;24.38;;
12597;SDS011;6364;53.590;9.956;2023-11-21T01:51:58;53.80;;;21.52;;
12597;SDS011;6364;53.590;9.956;2023-11-21T01:54:24;47.67;;;19.77;;
12597;SDS011;6364;53.590;9.956;2023-11-21T01:56:50;45.83;;;21.02;;
12597;SDS011;6364;53.590;9.956;2023-11-21T01:59:17;47.63;;;20.05;;
12597;SDS011;6364;53.590;9.956;2023-11-21T02:01:43;51.53;;;20.73;;
12597;SDS011;6364;53.590;9.956;2023-11-21T02:04:09;48.45;;;21.05;;
12597;SDS011;6364;53.590;9.956;2023-11-21T02:06:34;48.33;;;20.50;;
12597;SDS011;6364;53.590;9.956;2023-11-21T02:09:00;43.45;;;20.00;;
12597;SDS011;6364;53.590;9.956;2023-11-21T02:11:25;42.58;;;18.92;;
12597;SDS011;6364;53.590;9.956;2023-11-21T02:13:52;44.38;;;19.83;;
12597;SDS011;6364;53.590;9.956;2023-11-21T02:16:19;42.10;;;18.38;;
12597;SDS011;6364;53.590;9.956;2023-11-21T02:18:45;37.63;;;18.15;;
12597;SDS011;6364;53.590;9.956;2023-11-21T02:21:13;40.50;;;18.35;;
12597;SDS011;6364;53.590;9.956;2023-11-21T02:23:39;42.33;;;18.65;;
12597;SDS011;6364;53.590;9.956;2023-11-21T02:26:07;38.25;;;17.70;;
12597;SDS011;6364;53.590;9.956;2023-11-21T02:28:32;38.70;;;18.08;;
12597;SDS011;6364;53.590;9.956;2023-11-21T02:30:58;34.33;;;16.95;;
12597;SDS011;6364;53.590;9.956;2023-11-21T02:33:24;34.28;;;17.38;;
12597;SDS011;6364;53.590;9.956;2023-11-21T02:35:49;34.42;;;17.73;;
12597;SDS011;6364;53.590;9.956;2023-11-21T02:38:20;30.27;;;15.82;;
12597;SDS011;6364;53.590;9.956;2023-11-21T02:40:46;34.25;;;17.27;;
12597;SDS011;6364;53.590;9.956;2023-11-21T02:43:11;39.53;;;17.02;;
12597;SDS011;6364;53.590;9.956;2023-11-21T02:45:36;35.72;;;16.95;;
12597;SDS011;6364;53.590;9.956;2023-11-21T02:48:02;32.15;;;16.48;;
12597;SDS011;6364;53.590;9.956;2023-11-21T02:50:27;31.55;;;16.17;;
12597;SDS011;6364;53.590;9.956;2023-11-21T02:52:53;35.72;;;16.75;;
12597;SDS011;6364;53.590;9.956;2023-11-21T02:55:18;34.45;;;16.88;;
12597;SDS011;6364;53.590;9.956;2023-11-21T02:57:44;30.23;;;16.65;;
12597;SDS011;6364;53.590;9.956;2023-11-21T03:00:09;33.65;;;16.75;;
12597;SDS011;6364;53.590;9.956;2023-11-21T03:02:37;33.15;;;17.25;;
12597;SDS011;6364;53.590;9.956;2023-11-21T03:05:04;30.60;;;15.80;;
12597;SDS011;6364;53.590;9.956;2023-11-21T03:07:30;28.08;;;15.88;;
12597;SDS011;6364;53.590;9.956;2023-11-21T03:09:56;28.95;;;15.73;;
12597;SDS011;6364;53.590;9.956;2023-11-21T03:12:21;29.95;;;16.83;;
12597;SDS011;6364;53.590;9.956;2023-11-21T03:14:46;31.27;;;15.05;;
12597;SDS011;6364;53.590;9.956;2023-11-21T03:17:12;31.88;;;15.73;;
12597;SDS011;6364;53.590;9.956;2023-11-21T03:19:40;30.60;;;15.98;;
12597;SDS011;6364;53.590;9.956;2023-11-21T03:22:06;28.88;;;15.18;;
12597;SDS011;6364;53.590;9.956;2023-11-21T03:24:31;26.65;;;15.63;;
12597;SDS011;6364;53.590;9.956;2023-11-21T03:26:57;30.25;;;16.05;;
12597;SDS011;6364;53.590;9.956;2023-11-21T03:29:22;29.63;;;15.82;;
12597;SDS011;6364;53.590;9.956;2023-11-21T03:31:48;28.63;;;16.10;;
12597;SDS011;6364;53.590;9.956;2023-11-21T03:34:23;31.45;;;16.05;;
12597;SDS011;6364;53.590;9.956;2023-11-21T03:36:52;34.00;;;16.63;;
12597;SDS011;6364;53.590;9.956;2023-11-21T03:39:19;30.92;;;15.90;;
12597;SDS011;6364;53.590;9.956;2023-11-21T03:41:45;32.60;;;16.42;;
12597;SDS011;6364;53.590;9.956;2023-11-21T03:44:10;28.00;;;16.20;;
12597;SDS011;6364;53.590;9.956;2023-11-21T03:46:36;29.55;;;16.40;;
12597;SDS011;6364;53.590;9.956;2023-11-21T03:49:01;29.83;;;16.10;;
12597;SDS011;6364;53.590;9.956;2023-11-21T03:51:26;29.90;;;16.63;;
12597;SDS011;6364;53.590;9.956;2023-11-21T03:53:52;28.95;;;16.55;;
12597;SDS011;6364;53.590;9.956;2023-11-21T03:56:17;29.33;;;16.45;;
12597;SDS011;6364;53.590;9.956;2023-11-21T03:58:43;28.42;;;16.20;;
12597;SDS011;6364;53.590;9.956;2023-11-21T04:01:08;30.10;;;16.17;;
12597;SDS011;6364;53.590;9.956;2023-11-21T04:03:33;29.35;;;16.27;;
12597;SDS011;6364;53.590;9.956;2023-11-21T04:05:59;28.35;;;15.43;;
12597;SDS011;6364;53.590;9.956;2023-11-21T04:08:26;28.73;;;16.40;;
12597;SDS011;6364;53.590;9.956;2023-11-21T04:10:51;31.80;;;17.55;;
12597;SDS011;6364;53.590;9.956;2023-11-21T04:13:18;29.42;;;16.83;;
12597;SDS011;6364;53.590;9.956;2023-11-21T04:15:44;31.83;;;16.25;;
12597;SDS011;6364;53.590;9.956;2023-11-21T04:18:09;28.90;;;16.17;;
12597;SDS011;6364;53.590;9.956;2023-11-21T04:20:35;27.40;;;15.88;;
12597;SDS011;6364;53.590;9.956;2023-11-21T04:23:00;32.17;;;16.60;;
12597;SDS011;6364;53.590;9.956;2023-11-21T04:25:26;30.42;;;17.58;;
12597;SDS011;6364;53.590;9.956;2023-11-21T04:27:52;28.98;;;15.68;;
12597;SDS011;6364;53.590;9.956;2023-11-21T04:30:18;28.63;;;16.98;;
12597;SDS011;6364;53.590;9.956;2023-11-21T04:32:43;28.42;;;16.58;;
12597;SDS011;6364;53.590;9.956;2023-11-21T04:35:09;27.33;;;16.35;;
12597;SDS011;6364;53.590;9.956;2023-11-21T04:37:34;31.25;;;16.92;;
12597;SDS011;6364;53.590;9.956;2023-11-21T04:39:59;28.08;;;16.58;;
12597;SDS011;6364;53.590;9.956;2023-11-21T04:42:25;27.50;;;16.08;;
12597;SDS011;6364;53.590;9.956;2023-11-21T04:44:51;26.23;;;16.30;;
12597;SDS011;6364;53.590;9.956;2023-11-21T04:47:17;27.08;;;16.02;;
12597;SDS011;6364;53.590;9.956;2023-11-21T04:49:45;29.95;;;16.42;;
12597;SDS011;6364;53.590;9.956;2023-11-21T04:52:12;27.38;;;17.35;;
12597;SDS011;6364;53.590;9.956;2023-11-21T04:54:37;28.15;;;16.25;;
12597;SDS011;6364;53.590;9.956;2023-11-21T04:57:02;28.85;;;16.63;;
12597;SDS011;6364;53.590;9.956;2023-11-21T04:59:29;27.27;;;16.08;;
12597;SDS011;6364;53.590;9.956;2023-11-21T05:01:54;27.35;;;16.15;;
12597;SDS011;6364;53.590;9.956;2023-11-21T05:04:20;27.27;;;16.63;;
12597;SDS011;6364;53.590;9.956;2023-11-21T05:06:47;24.88;;;15.75;;
12597;SDS011;6364;53.590;9.956;2023-11-21T05:09:13;28.10;;;15.43;;
12597;SDS011;6364;53.590;9.956;2023-11-21T05:11:38;24.77;;;15.57;;
12597;SDS011;6364;53.590;9.956;2023-11-21T05:14:05;25.80;;;15.70;;
12597;SDS011;6364;53.590;9.956;2023-11-21T05:16:31;26.23;;;16.08;;
12597;SDS011;6364;53.590;9.956;2023-11-21T05:18:57;25.85;;;15.70;;
12597;SDS011;6364;53.590;9.956;2023-11-21T05:21:26;25.45;;;15.05;;
12597;SDS011;6364;53.590;9.956;2023-11-21T05:23:59;23.35;;;14.95;;
12597;SDS011;6364;53.590;9.956;2023-11-21T05:26:24;26.73;;;15.73;;
12597;SDS011;6364;53.590;9.956;2023-11-21T05:28:50;27.90;;;15.38;;
12597;SDS011;6364;53.590;9.956;2023-11-21T05:31:15;23.23;;;15.27;;
12597;SDS011;6364;53.590;9.956;2023-11-21T05:33:41;23.35;;;15.02;;
12597;SDS011;6364;53.590;9.956;2023-11-21T05:36:07;23.55;;;15.30;;
12597;SDS011;6364;53.590;9.956;2023-11-21T05:38:33;24.90;;;15.27;;
12597;SDS011;6364;53.590;9.956;2023-11-21T05:40:58;22.10;;;15.18;;
12597;SDS011;6364;53.590;9.956;2023-11-21T05:43:24;25.17;;;15.65;;
12597;SDS011;6364;53.590;9.956;2023-11-21T05:45:49;23.25;;;15.07;;
12597;SDS011;6364;53.590;9.956;2023-11-21T05:48:14;23.33;;;14.13;;
12597;SDS011;6364;53.590;9.956;2023-11-21T05:50:40;25.45;;;14.88;;
12597;SDS011;6364;53.590;9.956;2023-11-21T05:53:06;21.75;;;13.88;;
12597;SDS011;6364;53.590;9.956;2023-11-21T05:55:32;23.50;;;14.13;;
12597;SDS011;6364;53.590;9.956;2023-11-21T05:57:58;23.85;;;14.15;;
12597;SDS011;6364;53.590;9.956;2023-11-21T06:00:23;26.23;;;14.68;;
12597;SDS011;6364;53.590;9.956;2023-11-21T06:02:50;21.83;;;14.32;;
12597;SDS011;6364;53.590;9.956;2023-11-21T06:05:18;20.52;;;14.02;;
12597;SDS011;6364;53.590;9.956;2023-11-21T06:07:44;22.88;;;14.63;;
12597;SDS011;6364;53.590;9.956;2023-11-21T06:10:10;27.20;;;14.32;;
12597;SDS011;6364;53.590;9.956;2023-11-21T06:12:38;20.00;;;13.95;;
12597;SDS011;6364;53.590;9.956;2023-11-21T06:15:05;22.08;;;14.07;;
12597;SDS011;6364;53.590;9.956;2023-11-21T06:17:33;20.38;;;14.05;;
12597;SDS011;6364;53.590;9.956;2023-11-21T06:20:01;22.83;;;15.00;;
12597;SDS011;6364;53.590;9.956;2023-11-21T06:22:34;27.77;;;14.45;;
12597;SDS011;6364;53.590;9.956;2023-11-21T06:25:02;21.23;;;13.35;;
12597;SDS011;6364;53.590;9.956;2023-11-21T06:27:34;21.98;;;14.70;;
12597;SDS011;6364;53.590;9.956;2023-11-21T06:30:02;21.80;;;14.40;;
12597;SDS011;6364;53.590;9.956;2023-11-21T06:32:29;21.77;;;14.60;;
12597;SDS011;6364;53.590;9.956;2023-11-21T06:34:55;21.52;;;14.32;;
12597;SDS011;6364;53.590;9.956;2023-11-21T06:37:20;25.10;;;15.27;;
12597;SDS011;6364;53.590;9.956;2023-11-21T06:39:48;23.05;;;14.38;;
12597;SDS011;6364;53.590;9.956;2023-11-21T06:42:14;25.10;;;14.23;;
12597;SDS011;6364;53.590;9.956;2023-11-21T06:44:40;25.10;;;15.07;;
12597;SDS011;6364;53.590;9.956;2023-11-21T06:47:06;24.00;;;15.18;;
12597;SDS011;6364;53.590;9.956;2023-11-21T06:49:32;24.17;;;15.13;;
12597;SDS011;6364;53.590;9.956;2023-11-21T06:51:57;25.98;;;14.45;;
12597;SDS011;6364;53.590;9.956;2023-11-21T06:54:23;26.33;;;16.52;;
12597;SDS011;6364;53.590;9.956;2023-11-21T06:56:49;26.80;;;15.15;;
12597;SDS011;6364;53.590;9.956;2023-11-21T06:59:15;22.05;;;13.85;;
12597;SDS011;6364;53.590;9.956;2023-11-21T07:01:40;23.90;;;14.95;;
12597;SDS011;6364;53.590;9.956;2023-11-21T07:04:06;25.58;;;14.95;;
12597;SDS011;6364;53.590;9.956;2023-11-21T07:06:32;29.10;;;14.82;;
12597;SDS011;6364;53.590;9.956;2023-11-21T07:08:57;23.50;;;14.75;;
12597;SDS011;6364;53.590;9.956;2023-11-21T07:11:23;24.65;;;14.90;;
12597;SDS011;6364;53.590;9.956;2023-11-21T07:13:50;25.65;;;15.45;;
12597;SDS011;6364;53.590;9.956;2023-11-21T07:16:15;20.30;;;14.05;;
12597;SDS011;6364;53.590;9.956;2023-11-21T07:18:41;22.13;;;14.75;;
12597;SDS011;6364;53.590;9.956;2023-11-21T07:21:06;21.52;;;13.65;;
12597;SDS011;6364;53.590;9.956;2023-11-21T07:23:33;22.25;;;14.48;;
12597;SDS011;6364;53.590;9.956;2023-11-21T07:25:59;19.17;;;13.15;;
12597;SDS011;6364;53.590;9.956;2023-11-21T07:28:24;21.55;;;14.02;;
12597;SDS011;6364;53.590;9.956;2023-11-21T07:30:50;24.05;;;15.00;;
12597;SDS011;6364;53.590;9.956;2023-11-21T07:33:16;21.50;;;14.57;;
12597;SDS011;6364;53.590;9.956;2023-11-21T07:35:42;23.58;;;14.85;;
12597;SDS011;6364;53.590;9.956;2023-11-21T07:38:09;22.27;;;14.05;;
12597;SDS011;6364;53.590;9.956;2023-11-21T07:40:34;24.23;;;14.50;;
12597;SDS011;6364;53.590;9.956;2023-11-21T07:43:00;24.98;;;14.40;;
12597;SDS011;6364;53.590;9.956;2023-11-21T07:45:25;23.23;;;14.07;;
12597;SDS011;6364;53.590;9.956;2023-11-21T07:47:53;19.95;;;13.25;;
12597;SDS011;6364;53.590;9.956;2023-11-21T07:50:19;18.95;;;13.32;;
12597;SDS011;6364;53.590;9.956;2023-11-21T07:52:45;19.13;;;13.00;;
12597;SDS011;6364;53.590;9.956;2023-11-21T07:55:10;20.48;;;12.20;;
12597;SDS011;6364;53.590;9.956;2023-11-21T07:57:36;19.92;;;12.45;;
12597;SDS011;6364;53.590;9.956;2023-11-21T08:00:02;16.42;;;11.10;;
12597;SDS011;6364;53.590;9.956;2023-11-21T08:02:31;16.92;;;11.60;;
12597;SDS011;6364;53.590;9.956;2023-11-21T08:04:57;16.90;;;10.98;;
12597;SDS011;6364;53.590;9.956;2023-11-21T08:07:22;21.00;;;11.48;;
12597;SDS011;6364;53.590;9.956;2023-11-21T08:09:47;15.02;;;10.82;;
12597;SDS011;6364;53.590;9.956;2023-11-21T08:12:15;16.58;;;10.80;;
12597;SDS011;6364;53.590;9.956;2023-11-21T08:14:40;14.88;;;10.60;;
12597;SDS011;6364;53.590;9.956;2023-11-21T08:17:06;14.27;;;9.70;;
12597;SDS011;6364;53.590;9.956;2023-11-21T08:19:31;13.63;;;9.38;;
12597;SDS011;6364;53.590;9.956;2023-11-21T08:21:58;16.10;;;10.48;;
12597;SDS011;6364;53.590;9.956;2023-11-21T08:24:24;18.00;;;9.82;;
12597;SDS011;6364;53.590;9.956;2023-11-21T08:26:50;19.25;;;9.60;;
12597;SDS011;6364;53.590;9.956;2023-11-21T08:29:17;15.77;;;9.57;;
12597;SDS011;6364;53.590;9.956;2023-11-21T08:31:43;13.02;;;9.05;;
12597;SDS011;6364;53.590;9.956;2023-11-21T08:34:11;13.25;;;8.35;;
12597;SDS011;6364;53.590;9.956;2023-11-21T08:36:41;15.65;;;9.43;;
12597;SDS011;6364;53.590;9.956;2023-11-21T08:39:10;11.60;;;8.27;;
12597;SDS011;6364;53.590;9.956;2023-11-21T08:41:36;12.48;;;8.25;;
12597;SDS011;6364;53.590;9.956;2023-11-21T08:44:01;13.35;;;8.20;;
12597;SDS011;6364;53.590;9.956;2023-11-21T08:46:27;11.45;;;7.72;;
12597;SDS011;6364;53.590;9.956;2023-11-21T08:48:52;10.93;;;7.88;;
12597;SDS011;6364;53.590;9.956;2023-11-21T08:51:18;11.30;;;7.68;;
12597;SDS011;6364;53.590;9.956;2023-11-21T08:53:43;13.50;;;7.80;;
12597;SDS011;6364;53.590;9.956;2023-11-21T08:56:15;12.10;;;7.55;;
12597;SDS011;6364;53.590;9.956;2023-11-21T08:58:40;10.93;;;7.50;;
12597;SDS011;6364;53.590;9.956;2023-11-21T09:01:06;11.95;;;7.80;;
12597;SDS011;6364;53.590;9.956;2023-11-21T09:03:32;13.32;;;8.10;;
12597;SDS011;6364;53.590;9.956;2023-11-21T09:05:59;19.13;;;9.15;;
12597;SDS011;6364;53.590;9.956;2023-11-21T09:08:25;12.45;;;8.27;;
12597;SDS011;6364;53.590;9.956;2023-11-21T09:10:50;11.77;;;8.27;;
12597;SDS011;6364;53.590;9.956;2023-11-21T09:13:16;15.68;;;9.10;;
12597;SDS011;6364;53.590;9.956;2023-11-21T09:15:42;15.27;;;9.18;;
12597;SDS011;6364;53.590;9.956;2023-11-21T09:18:11;13.52;;;9.73;;
12597;SDS011;6364;53.590;9.956;2023-11-21T09:20:40;14.52;;;9.25;;
12597;SDS011;6364;53.590;9.956;2023-11-21T09:23:05;14.48;;;9.07;;
12597;SDS011;6364;53.590;9.956;2023-11-21T09:25:32;15.75;;;8.77;;
12597;SDS011;6364;53.590;9.956;2023-11-21T09:27:57;17.00;;;9.05;;
12597;SDS011;6364;53.590;9.956;2023-11-21T09:30:23;14.75;;;8.35;;
12597;SDS011;6364;53.590;9.956;2023-11-21T09:32:49;10.93;;;8.00;;
12597;SDS011;6364;53.590;9.956;2023-11-21T09:35:15;12.90;;;7.28;;
12597;SDS011;6364;53.590;9.956;2023-11-21T09:37:43;10.80;;;7.03;;
12597;SDS011;6364;53.590;9.956;2023-11-21T09:40:12;13.50;;;7.25;;
12597;SDS011;6364;53.590;9.956;2023-11-21T09:42:39;8.57;;;6.40;;
12597;SDS011;6364;53.590;9.956;2023-11-21T09:47:35;8.15;;;5.18;;
12597;SDS011;6364;53.590;9.956;2023-11-21T09:50:01;9.45;;;5.57;;
12597;SDS011;6364;53.590;9.956;2023-11-21T09:52:27;6.43;;;5.18;;
12597;SDS011;6364;53.590;9.956;2023-11-21T09:54:53;11.50;;;5.80;;
12597;SDS011;6364;53.590;9.956;2023-11-21T09:57:22;7.55;;;5.10;;
12597;SDS011;6364;53.590;9.956;2023-11-21T09:59:49;10.50;;;5.70;;
12597;SDS011;6364;53.590;9.956;2023-11-21T10:02:16;8.68;;;5.70;;
12597;SDS011;6364;53.590;9.956;2023-11-21T10:04:43;7.05;;;5.35;;
12597;SDS011;6364;53.590;9.956;2023-11-21T10:07:10;9.77;;;5.25;;
12597;SDS011;6364;53.590;9.956;2023-11-21T10:09:36;8.75;;;5.30;;
12597;SDS011;6364;53.590;9.956;2023-11-21T10:12:03;7.22;;;5.65;;
12597;SDS011;6364;53.590;9.956;2023-11-21T10:14:29;8.57;;;5.53;;
12597;SDS011;6364;53.590;9.956;2023-11-21T10:16:55;8.70;;;5.47;;
12597;SDS011;6364;53.590;9.956;2023-11-21T10:19:21;13.70;;;5.72;;
12597;SDS011;6364;53.590;9.956;2023-11-21T10:21:49;7.53;;;5.53;;
12597;SDS011;6364;53.590;9.956;2023-11-21T10:24:14;8.25;;;5.70;;
12597;SDS011;6364;53.590;9.956;2023-11-21T10:26:40;7.63;;;4.90;;
12597;SDS011;6364;53.590;9.956;2023-11-21T10:29:06;6.65;;;4.53;;
12597;SDS011;6364;53.590;9.956;2023-11-21T10:31:32;10.07;;;4.68;;
12597;SDS011;6364;53.590;9.956;2023-11-21T10:34:14;8.57;;;4.82;;
12597;SDS011;6364;53.590;9.956;2023-11-21T10:36:40;5.95;;;4.55;;
12597;SDS011;6364;53.590;9.956;2023-11-21T10:39:06;5.20;;;4.13;;
12597;SDS011;6364;53.590;9.956;2023-11-21T10:41:32;6.40;;;4.05;;
12597;SDS011;6364;53.590;9.956;2023-11-21T10:43:57;5.22;;;4.47;;
12597;SDS011;6364;53.590;9.956;2023-11-21T10:46:23;7.03;;;4.43;;
12597;SDS011;6364;53.590;9.956;2023-11-21T10:48:53;5.82;;;3.88;;
12597;SDS011;6364;53.590;9.956;2023-11-21T10:51:22;7.40;;;4.50;;
12597;SDS011;6364;53.590;9.956;2023-11-21T10:53:49;5.65;;;4.60;;
12597;SDS011;6364;53.590;9.956;2023-11-21T10:56:16;4.78;;;3.58;;
12597;SDS011;6364;53.590;9.956;2023-11-21T10:58:46;5.53;;;4.28;;
12597;SDS011;6364;53.590;9.956;2023-11-21T11:01:12;6.18;;;4.32;;
12597;SDS011;6364;53.590;9.956;2023-11-21T11:03:39;6.40;;;4.43;;
12597;SDS011;6364;53.590;9.956;2023-11-21T11:06:05;6.03;;;4.40;;
12597;SDS011;6364;53.590;9.956;2023-11-21T11:08:36;11.40;;;4.57;;
12597;SDS011;6364;53.590;9.956;2023-11-21T11:11:02;11.30;;;4.47;;
12597;SDS011;6364;53.590;9.956;2023-11-21T11:13:28;5.47;;;4.28;;
12597;SDS011;6364;53.590;9.956;2023-11-21T11:16:00;5.65;;;4.65;;
12597;SDS011;6364;53.590;9.956;2023-11-21T11:18:32;4.82;;;3.83;;
12597;SDS011;6364;53.590;9.956;2023-11-21T11:21:00;6.40;;;3.97;;
12597;SDS011;6364;53.590;9.956;2023-11-21T11:26:57;13.77;;;5.03;;
12597;SDS011;6364;53.590;9.956;2023-11-21T11:34:45;6.53;;;4.07;;
12597;SDS011;6364;53.590;9.956;2023-11-21T11:37:15;6.50;;;4.22;;
12597;SDS011;6364;53.590;9.956;2023-11-21T11:39:41;9.55;;;4.40;;
12597;SDS011;6364;53.590;9.956;2023-11-21T11:42:10;5.03;;;4.18;;
12597;SDS011;6364;53.590;9.956;2023-11-21T11:47:22;5.80;;;3.92;;
12597;SDS011;6364;53.590;9.956;2023-11-21T11:50:11;5.07;;;3.53;;
12597;SDS011;6364;53.590;9.956;2023-11-21T11:52:47;4.55;;;3.60;;
12597;SDS011;6364;53.590;9.956;2023-11-21T11:55:17;7.47;;;4.30;;
12597;SDS011;6364;53.590;9.956;2023-11-21T11:57:44;5.50;;;3.60;;
12597;SDS011;6364;53.590;9.956;2023-11-21T12:00:18;5.75;;;3.72;;
12597;SDS011;6364;53.590;9.956;2023-11-21T12:02:53;5.18;;;3.80;;
12597;SDS011;6364;53.590;9.956;2023-11-21T12:05:21;7.03;;;4.47;;
12597;SDS011;6364;53.590;9.956;2023-11-21T12:10:29;7.95;;;3.85;;
12597;SDS011;6364;53.590;9.956;2023-11-21T12:12:59;6.85;;;4.15;;
12597;SDS011;6364;53.590;9.956;2023-11-21T12:15:26;6.72;;;4.05;;
12597;SDS011;6364;53.590;9.956;2023-11-21T12:17:54;6.55;;;4.25;;
12597;SDS011;6364;53.590;9.956;2023-11-21T12:20:20;4.85;;;3.63;;
12597;SDS011;6364;53.590;9.956;2023-11-21T12:22:47;6.65;;;4.05;;
12597;SDS011;6364;53.590;9.956;2023-11-21T12:25:20;6.65;;;3.95;;
12597;SDS011;6364;53.590;9.956;2023-11-21T12:27:51;6.13;;;3.92;;
12597;SDS011;6364;53.590;9.956;2023-11-21T12:30:18;6.13;;;4.03;;
12597;SDS011;6364;53.590;9.956;2023-11-21T12:32:44;6.47;;;4.15;;
12597;SDS011;6364;53.590;9.956;2023-11-21T12:35:12;7.22;;;4.00;;
12597;SDS011;6364;53.590;9.956;2023-11-21T12:37:38;8.63;;;4.63;;
12597;SDS011;6364;53.590;9.956;2023-11-21T12:40:05;7.90;;;4.70;;
12597;SDS011;6364;53.590;9.956;2023-11-21T12:42:36;6.55;;;4.55;;
12597;SDS011;6364;53.590;9.956;2023-11-21T12:45:09;8.50;;;4.82;;
12597;SDS011;6364;53.590;9.956;2023-11-21T12:47:42;6.97;;;4.65;;
12597;SDS011;6364;53.590;9.956;2023-11-21T12:50:08;7.90;;;4.30;;
12597;SDS011;6364;53.590;9.956;2023-11-21T12:52:40;8.52;;;4.35;;
12597;SDS011;6364;53.590;9.956;2023-11-21T12:55:06;6.78;;;4.25;;
12597;SDS011;6364;53.590;9.956;2023-11-21T12:57:33;5.85;;;4.35;;
12597;SDS011;6364;53.590;9.956;2023-11-21T12:59:58;6.00;;;3.95;;
12597;SDS011;6364;53.590;9.956;2023-11-21T13:02:30;5.72;;;4.50;;
12597;SDS011;6364;53.590;9.956;2023-11-21T13:04:56;5.22;;;4.07;;
12597;SDS011;6364;53.590;9.956;2023-11-21T13:07:23;7.85;;;3.90;;
12597;SDS011;6364;53.590;9.956;2023-11-21T13:09:51;4.93;;;3.97;;
12597;SDS011;6364;53.590;9.956;2023-11-21T13:12:17;7.40;;;4.07;;
12597;SDS011;6364;53.590;9.956;2023-11-21T13:14:45;7.10;;;4.10;;
12597;SDS011;6364;53.590;9.956;2023-11-21T13:17:11;4.15;;;3.65;;
12597;SDS011;6364;53.590;9.956;2023-11-21T13:19:37;7.50;;;4.18;;
12597;SDS011;6364;53.590;9.956;2023-11-21T13:22:03;6.72;;;4.22;;
12597;SDS011;6364;53.590;9.956;2023-11-21T13:24:29;5.53;;;4.13;;
12597;SDS011;6364;53.590;9.956;2023-11-21T13:26:54;6.95;;;4.35;;
12597;SDS011;6364;53.590;9.956;2023-11-21T13:29:20;6.10;;;3.95;;
12597;SDS011;6364;53.590;9.956;2023-11-21T13:31:46;4.82;;;4.03;;
12597;SDS011;6364;53.590;9.956;2023-11-21T13:34:15;5.82;;;4.50;;
12597;SDS011;6364;53.590;9.956;2023-11-21T13:36:44;6.95;;;4.63;;
12597;SDS011;6364;53.590;9.956;2023-11-21T13:39:10;6.53;;;4.65;;
12597;SDS011;6364;53.590;9.956;2023-11-21T13:41:40;7.47;;;4.60;;
12597;SDS011;6364;53.590;9.956;2023-11-21T13:44:06;7.05;;;4.70;;
12597;SDS011;6364;53.590;9.956;2023-11-21T13:46:45;6.78;;;4.90;;
12597;SDS011;6364;53.590;9.956;2023-11-21T13:49:10;7.93;;;4.68;;
12597;SDS011;6364;53.590;9.956;2023-11-21T13:51:36;7.28;;;4.78;;
12597;SDS011;6364;53.590;9.956;2023-11-21T13:54:10;6.43;;;4.78;;
12597;SDS011;6364;53.590;9.956;2023-11-21T13:56:36;8.82;;;4.85;;
12597;SDS011;6364;53.590;9.956;2023-11-21T13:59:02;8.82;;;4.40;;
12597;SDS011;6364;53.590;9.956;2023-11-21T14:01:48;6.07;;;4.13;;
12597;SDS011;6364;53.590;9.956;2023-11-21T14:04:22;5.97;;;4.00;;
12597;SDS011;6364;53.590;9.956;2023-11-21T14:07:04;6.30;;;4.47;;
12597;SDS011;6364;53.590;9.956;2023-11-21T14:09:47;5.80;;;4.07;;
12597;SDS011;6364;53.590;9.956;2023-11-21T14:12:14;7.65;;;4.97;;
12597;SDS011;6364;53.590;9.956;2023-11-21T14:14:40;6.05;;;4.53;;
12597;SDS011;6364;53.590;9.956;2023-11-21T14:17:06;7.45;;;4.95;;
12597;SDS011;6364;53.590;9.956;2023-11-21T14:19:32;7.05;;;5.03;;
12597;SDS011;6364;53.590;9.956;2023-11-21T14:21:58;9.05;;;4.90;;
12597;SDS011;6364;53.590;9.956;2023-11-21T14:24:24;6.13;;;4.78;;
12597;SDS011;6364;53.590;9.956;2023-11-21T14:26:50;7.60;;;4.88;;
12597;SDS011;6364;53.590;9.956;2023-11-21T14:29:16;7.85;;;5.07;;
12597;SDS011;6364;53.590;9.956;2023-11-21T14:31:45;8.13;;;4.40;;
12597;SDS011;6364;53.590;9.956;2023-11-21T14:34:10;6.93;;;4.82;;
12597;SDS011;6364;53.590;9.956;2023-11-21T14:36:37;5.47;;;4.30;;
12597;SDS011;6364;53.590;9.956;2023-11-21T14:39:04;5.18;;;3.75;;
12597;SDS011;6364;53.590;9.956;2023-11-21T14:44:04;4.97;;;3.45;;
12597;SDS011;6364;53.590;9.956;2023-11-21T14:46:32;4.85;;;3.03;;
12597;SDS011;6364;53.590;9.956;2023-11-21T14:48:59;5.18;;;3.30;;
12597;SDS011;6364;53.590;9.956;2023-11-21T14:51:42;7.18;;;3.50;;
12597;SDS011;6364;53.590;9.956;2023-11-21T14:54:28;4.28;;;3.05;;
12597;SDS011;6364;53.590;9.956;2023-11-21T14:57:20;4.75;;;3.25;;
12597;SDS011;6364;53.590;9.956;2023-11-21T14:59:47;3.50;;;2.95;;
12597;SDS011;6364;53.590;9.956;2023-11-21T15:02:17;5.03;;;3.55;;